sensor_id;sensor_type;location;lat;lon;timestamp;temperature;humidity
31975;DHT22;18500;43.618;1.474;2023-09-19T00:01:06;18.20;1.00
31975;DHT22;18500;43.618;1.474;2023-09-19T00:03:34;18.30;1.00
31975;DHT22;18500;43.618;1.474;2023-09-19T00:06:02;18.20;1.00
31975;DHT22;18500;43.618;1.474;2023-09-19T00:08:28;18.10;1.00
31975;DHT22;18500;43.618;1.474;2023-09-19T00:10:54;18.10;1.00
31975;DHT22;18500;43.618;1.474;2023-09-19T00:13:20;18.10;1.00
31975;DHT22;18500;43.618;1.474;2023-09-19T00:15:46;18.10;1.00
31975;DHT22;18500;43.618;1.474;2023-09-19T00:18:16;18.00;1.00
31975;DHT22;18500;43.618;1.474;2023-09-19T00:20:42;18.00;1.00
31975;DHT22;18500;43.618;1.474;2023-09-19T00:23:08;18.00;1.00
31975;DHT22;18500;43.618;1.474;2023-09-19T00:25:36;18.00;1.00
31975;DHT22;18500;43.618;1.474;2023-09-19T00:28:03;18.00;1.00
31975;DHT22;18500;43.618;1.474;2023-09-19T00:30:29;18.00;1.00
31975;DHT22;18500;43.618;1.474;2023-09-19T00:32:55;18.00;1.00
31975;DHT22;18500;43.618;1.474;2023-09-19T00:35:21;17.90;1.00
31975;DHT22;18500;43.618;1.474;2023-09-19T00:37:50;18.00;1.00
31975;DHT22;18500;43.618;1.474;2023-09-19T00:40:15;17.90;1.00
31975;DHT22;18500;43.618;1.474;2023-09-19T00:42:45;17.90;1.00
31975;DHT22;18500;43.618;1.474;2023-09-19T00:45:12;17.90;1.00
31975;DHT22;18500;43.618;1.474;2023-09-19T00:47:41;17.90;1.00
31975;DHT22;18500;43.618;1.474;2023-09-19T00:50:08;17.90;1.00
31975;DHT22;18500;43.618;1.474;2023-09-19T00:52:34;17.90;1.00
31975;DHT22;18500;43.618;1.474;2023-09-19T00:55:02;18.00;1.00
31975;DHT22;18500;43.618;1.474;2023-09-19T00:57:28;18.00;1.00
31975;DHT22;18500;43.618;1.474;2023-09-19T00:59:58;17.90;1.00
31975;DHT22;18500;43.618;1.474;2023-09-19T01:02:24;17.90;1.00
31975;DHT22;18500;43.618;1.474;2023-09-19T01:04:52;18.00;1.00
31975;DHT22;18500;43.618;1.474;2023-09-19T01:07:18;17.90;1.00
31975;DHT22;18500;43.618;1.474;2023-09-19T01:09:44;17.90;1.00
31975;DHT22;18500;43.618;1.474;2023-09-19T01:12:10;17.90;1.00
31975;DHT22;18500;43.618;1.474;2023-09-19T01:14:40;17.80;1.00
31975;DHT22;18500;43.618;1.474;2023-09-19T01:17:20;17.90;1.00
31975;DHT22;18500;43.618;1.474;2023-09-19T01:20:08;18.00;1.00
31975;DHT22;18500;43.618;1.474;2023-09-19T01:25:28;18.00;1.00
31975;DHT22;18500;43.618;1.474;2023-09-19T01:30:40;17.90;1.00
31975;DHT22;18500;43.618;1.474;2023-09-19T01:33:08;17.90;1.00
31975;DHT22;18500;43.618;1.474;2023-09-19T01:35:38;17.90;1.00
31975;DHT22;18500;43.618;1.474;2023-09-19T01:38:07;17.80;1.00
31975;DHT22;18500;43.618;1.474;2023-09-19T01:40:41;17.80;1.00
31975;DHT22;18500;43.618;1.474;2023-09-19T01:43:30;17.80;1.00
31975;DHT22;18500;43.618;1.474;2023-09-19T01:51:20;17.70;1.00
31975;DHT22;18500;43.618;1.474;2023-09-19T01:53:59;17.70;1.00
31975;DHT22;18500;43.618;1.474;2023-09-19T01:56:29;17.70;1.00
31975;DHT22;18500;43.618;1.474;2023-09-19T01:58:59;17.70;1.00
31975;DHT22;18500;43.618;1.474;2023-09-19T02:01:29;17.70;1.00
31975;DHT22;18500;43.618;1.474;2023-09-19T02:03:55;17.70;1.00
31975;DHT22;18500;43.618;1.474;2023-09-19T02:06:21;17.60;1.00
31975;DHT22;18500;43.618;1.474;2023-09-19T02:08:47;17.80;1.00
31975;DHT22;18500;43.618;1.474;2023-09-19T02:11:13;17.80;1.00
31975;DHT22;18500;43.618;1.474;2023-09-19T02:13:38;17.70;1.00
31975;DHT22;18500;43.618;1.474;2023-09-19T02:16:04;17.70;1.00
31975;DHT22;18500;43.618;1.474;2023-09-19T02:18:30;17.70;1.00
31975;DHT22;18500;43.618;1.474;2023-09-19T02:20:56;17.70;1.00
31975;DHT22;18500;43.618;1.474;2023-09-19T02:23:24;17.70;1.00
31975;DHT22;18500;43.618;1.474;2023-09-19T02:25:53;17.70;1.00
31975;DHT22;18500;43.618;1.474;2023-09-19T02:28:19;17.70;1.00
31975;DHT22;18500;43.618;1.474;2023-09-19T02:30:47;17.60;1.00
31975;DHT22;18500;43.618;1.474;2023-09-19T02:33:13;17.60;1.00
31975;DHT22;18500;43.618;1.474;2023-09-19T02:35:38;17.70;1.00
31975;DHT22;18500;43.618;1.474;2023-09-19T02:38:04;17.60;1.00
31975;DHT22;18500;43.618;1.474;2023-09-19T02:40:31;17.50;1.00
31975;DHT22;18500;43.618;1.474;2023-09-19T02:43:01;17.50;1.00
31975;DHT22;18500;43.618;1.474;2023-09-19T02:45:27;17.40;1.00
31975;DHT22;18500;43.618;1.474;2023-09-19T02:47:53;17.40;1.00
31975;DHT22;18500;43.618;1.474;2023-09-19T02:50:18;17.50;1.00
31975;DHT22;18500;43.618;1.474;2023-09-19T02:52:44;17.40;1.00
31975;DHT22;18500;43.618;1.474;2023-09-19T02:55:11;17.50;1.00
31975;DHT22;18500;43.618;1.474;2023-09-19T02:57:38;17.50;1.00
31975;DHT22;18500;43.618;1.474;2023-09-19T03:00:07;17.40;1.00
31975;DHT22;18500;43.618;1.474;2023-09-19T03:02:33;17.50;1.00
31975;DHT22;18500;43.618;1.474;2023-09-19T03:05:00;17.40;1.00
31975;DHT22;18500;43.618;1.474;2023-09-19T03:07:25;17.30;1.00
31975;DHT22;18500;43.618;1.474;2023-09-19T03:09:51;17.30;1.00
31975;DHT22;18500;43.618;1.474;2023-09-19T03:12:18;17.20;1.00
31975;DHT22;18500;43.618;1.474;2023-09-19T03:14:43;17.20;1.00
31975;DHT22;18500;43.618;1.474;2023-09-19T03:17:09;17.30;1.00
31975;DHT22;18500;43.618;1.474;2023-09-19T03:19:35;17.30;1.00
31975;DHT22;18500;43.618;1.474;2023-09-19T03:22:00;17.30;1.00
31975;DHT22;18500;43.618;1.474;2023-09-19T03:24:26;17.30;1.00
31975;DHT22;18500;43.618;1.474;2023-09-19T03:26:51;17.20;1.00
31975;DHT22;18500;43.618;1.474;2023-09-19T03:29:17;17.30;1.00
31975;DHT22;18500;43.618;1.474;2023-09-19T03:31:43;17.20;1.00
31975;DHT22;18500;43.618;1.474;2023-09-19T03:34:09;17.10;1.00
31975;DHT22;18500;43.618;1.474;2023-09-19T03:36:35;17.10;1.00
31975;DHT22;18500;43.618;1.474;2023-09-19T03:39:00;17.20;1.00
31975;DHT22;18500;43.618;1.474;2023-09-19T03:41:26;17.10;1.00
31975;DHT22;18500;43.618;1.474;2023-09-19T03:43:51;17.10;1.00
31975;DHT22;18500;43.618;1.474;2023-09-19T03:46:18;17.20;1.00
31975;DHT22;18500;43.618;1.474;2023-09-19T03:48:43;17.10;1.00
31975;DHT22;18500;43.618;1.474;2023-09-19T03:51:09;17.10;1.00
31975;DHT22;18500;43.618;1.474;2023-09-19T03:53:36;16.80;1.00
31975;DHT22;18500;43.618;1.474;2023-09-19T03:56:01;16.70;1.00
31975;DHT22;18500;43.618;1.474;2023-09-19T03:58:28;16.80;1.00
31975;DHT22;18500;43.618;1.474;2023-09-19T04:00:56;17.00;1.00
31975;DHT22;18500;43.618;1.474;2023-09-19T04:03:23;17.00;1.00
31975;DHT22;18500;43.618;1.474;2023-09-19T04:05:48;17.10;1.00
31975;DHT22;18500;43.618;1.474;2023-09-19T04:08:14;16.90;1.00
31975;DHT22;18500;43.618;1.474;2023-09-19T04:10:42;16.90;1.00
31975;DHT22;18500;43.618;1.474;2023-09-19T04:13:09;17.00;1.00
31975;DHT22;18500;43.618;1.474;2023-09-19T04:15:34;17.00;1.00
31975;DHT22;18500;43.618;1.474;2023-09-19T04:18:00;17.00;1.00
31975;DHT22;18500;43.618;1.474;2023-09-19T04:20:25;17.00;1.00
31975;DHT22;18500;43.618;1.474;2023-09-19T04:22:51;16.90;1.00
31975;DHT22;18500;43.618;1.474;2023-09-19T04:25:16;16.90;1.00
31975;DHT22;18500;43.618;1.474;2023-09-19T04:27:44;16.90;1.00
31975;DHT22;18500;43.618;1.474;2023-09-19T04:30:09;16.90;1.00
31975;DHT22;18500;43.618;1.474;2023-09-19T04:32:36;16.80;1.00
31975;DHT22;18500;43.618;1.474;2023-09-19T04:35:08;16.80;1.00
31975;DHT22;18500;43.618;1.474;2023-09-19T04:37:40;16.80;1.00
31975;DHT22;18500;43.618;1.474;2023-09-19T04:40:07;16.80;1.00
31975;DHT22;18500;43.618;1.474;2023-09-19T04:42:40;16.80;1.00
31975;DHT22;18500;43.618;1.474;2023-09-19T04:45:07;16.70;1.00
31975;DHT22;18500;43.618;1.474;2023-09-19T04:47:33;16.70;1.00
31975;DHT22;18500;43.618;1.474;2023-09-19T04:49:59;16.60;1.00
31975;DHT22;18500;43.618;1.474;2023-09-19T04:52:24;16.60;1.00
31975;DHT22;18500;43.618;1.474;2023-09-19T04:54:50;16.50;1.00
31975;DHT22;18500;43.618;1.474;2023-09-19T04:57:15;16.50;1.00
31975;DHT22;18500;43.618;1.474;2023-09-19T04:59:41;16.60;1.00
31975;DHT22;18500;43.618;1.474;2023-09-19T05:02:07;16.50;1.00
31975;DHT22;18500;43.618;1.474;2023-09-19T05:04:35;16.50;1.00
31975;DHT22;18500;43.618;1.474;2023-09-19T05:07:01;16.40;1.00
31975;DHT22;18500;43.618;1.474;2023-09-19T05:09:28;16.30;1.00
31975;DHT22;18500;43.618;1.474;2023-09-19T05:11:54;16.30;1.00
31975;DHT22;18500;43.618;1.474;2023-09-19T05:14:19;16.30;1.00
31975;DHT22;18500;43.618;1.474;2023-09-19T05:16:46;16.20;1.00
31975;DHT22;18500;43.618;1.474;2023-09-19T05:19:12;16.10;1.00
31975;DHT22;18500;43.618;1.474;2023-09-19T05:21:37;16.10;1.00
31975;DHT22;18500;43.618;1.474;2023-09-19T05:24:07;16.10;1.00
31975;DHT22;18500;43.618;1.474;2023-09-19T05:26:32;16.10;1.00
31975;DHT22;18500;43.618;1.474;2023-09-19T05:28:58;16.10;1.00
31975;DHT22;18500;43.618;1.474;2023-09-19T05:31:24;16.10;1.00
31975;DHT22;18500;43.618;1.474;2023-09-19T05:33:51;16.10;1.00
31975;DHT22;18500;43.618;1.474;2023-09-19T05:36:16;16.20;1.00
31975;DHT22;18500;43.618;1.474;2023-09-19T05:38:42;16.30;1.00
31975;DHT22;18500;43.618;1.474;2023-09-19T05:41:09;16.30;1.00
31975;DHT22;18500;43.618;1.474;2023-09-19T05:43:39;16.20;1.00
31975;DHT22;18500;43.618;1.474;2023-09-19T05:46:06;16.20;1.00
31975;DHT22;18500;43.618;1.474;2023-09-19T05:48:33;16.10;1.00
31975;DHT22;18500;43.618;1.474;2023-09-19T05:50:58;16.10;1.00
31975;DHT22;18500;43.618;1.474;2023-09-19T05:53:24;16.00;1.00
31975;DHT22;18500;43.618;1.474;2023-09-19T05:55:50;16.00;1.00
31975;DHT22;18500;43.618;1.474;2023-09-19T05:58:15;16.10;1.00
31975;DHT22;18500;43.618;1.474;2023-09-19T06:00:42;16.10;1.00
31975;DHT22;18500;43.618;1.474;2023-09-19T06:03:10;16.10;1.00
31975;DHT22;18500;43.618;1.474;2023-09-19T06:05:37;16.10;1.00
31975;DHT22;18500;43.618;1.474;2023-09-19T06:08:07;16.10;1.00
31975;DHT22;18500;43.618;1.474;2023-09-19T06:10:33;16.20;1.00
31975;DHT22;18500;43.618;1.474;2023-09-19T06:12:59;16.30;1.00
31975;DHT22;18500;43.618;1.474;2023-09-19T06:15:25;16.30;1.00
31975;DHT22;18500;43.618;1.474;2023-09-19T06:17:55;16.30;1.00
31975;DHT22;18500;43.618;1.474;2023-09-19T06:20:21;16.40;1.00
31975;DHT22;18500;43.618;1.474;2023-09-19T06:22:47;16.50;1.00
31975;DHT22;18500;43.618;1.474;2023-09-19T06:25:13;16.70;1.00
31975;DHT22;18500;43.618;1.474;2023-09-19T06:27:46;16.70;1.00
31975;DHT22;18500;43.618;1.474;2023-09-19T06:30:11;16.70;1.00
31975;DHT22;18500;43.618;1.474;2023-09-19T06:32:38;16.80;1.00
31975;DHT22;18500;43.618;1.474;2023-09-19T06:35:04;16.80;1.00
31975;DHT22;18500;43.618;1.474;2023-09-19T06:37:32;16.80;1.00
31975;DHT22;18500;43.618;1.474;2023-09-19T06:39:59;16.80;1.00
31975;DHT22;18500;43.618;1.474;2023-09-19T06:42:25;16.80;1.00
31975;DHT22;18500;43.618;1.474;2023-09-19T06:44:51;16.90;1.00
31975;DHT22;18500;43.618;1.474;2023-09-19T06:47:16;16.90;1.00
31975;DHT22;18500;43.618;1.474;2023-09-19T06:49:42;17.00;1.00
31975;DHT22;18500;43.618;1.474;2023-09-19T06:52:10;17.00;1.00
31975;DHT22;18500;43.618;1.474;2023-09-19T06:54:36;17.10;1.00
31975;DHT22;18500;43.618;1.474;2023-09-19T06:57:03;17.10;1.00
31975;DHT22;18500;43.618;1.474;2023-09-19T06:59:28;17.10;1.00
31975;DHT22;18500;43.618;1.474;2023-09-19T07:01:54;17.20;1.00
31975;DHT22;18500;43.618;1.474;2023-09-19T07:04:20;17.20;1.00
31975;DHT22;18500;43.618;1.474;2023-09-19T07:06:49;17.20;1.00
31975;DHT22;18500;43.618;1.474;2023-09-19T07:09:15;17.30;1.00
31975;DHT22;18500;43.618;1.474;2023-09-19T07:11:41;17.30;1.00
31975;DHT22;18500;43.618;1.474;2023-09-19T07:14:06;17.40;1.00
31975;DHT22;18500;43.618;1.474;2023-09-19T07:16:32;17.50;1.00
31975;DHT22;18500;43.618;1.474;2023-09-19T07:18:57;17.50;1.00
31975;DHT22;18500;43.618;1.474;2023-09-19T07:21:23;17.40;1.00
31975;DHT22;18500;43.618;1.474;2023-09-19T07:23:49;17.50;1.00
31975;DHT22;18500;43.618;1.474;2023-09-19T07:26:15;17.50;1.00
31975;DHT22;18500;43.618;1.474;2023-09-19T07:28:40;17.50;1.00
31975;DHT22;18500;43.618;1.474;2023-09-19T07:31:06;17.60;1.00
31975;DHT22;18500;43.618;1.474;2023-09-19T07:33:35;17.70;1.00
31975;DHT22;18500;43.618;1.474;2023-09-19T07:36:01;17.70;1.00
31975;DHT22;18500;43.618;1.474;2023-09-19T07:38:27;17.90;1.00
31975;DHT22;18500;43.618;1.474;2023-09-19T07:40:52;18.00;1.00
31975;DHT22;18500;43.618;1.474;2023-09-19T07:43:18;18.10;1.00
31975;DHT22;18500;43.618;1.474;2023-09-19T07:45:43;18.10;1.00
31975;DHT22;18500;43.618;1.474;2023-09-19T07:48:09;18.20;1.00
31975;DHT22;18500;43.618;1.474;2023-09-19T07:50:39;18.30;1.00
31975;DHT22;18500;43.618;1.474;2023-09-19T07:53:05;18.30;1.00
31975;DHT22;18500;43.618;1.474;2023-09-19T07:55:31;18.40;1.00
31975;DHT22;18500;43.618;1.474;2023-09-19T07:57:59;18.40;1.00
31975;DHT22;18500;43.618;1.474;2023-09-19T08:00:24;18.50;1.00
31975;DHT22;18500;43.618;1.474;2023-09-19T08:02:50;18.60;1.00
31975;DHT22;18500;43.618;1.474;2023-09-19T08:05:17;18.60;1.00
31975;DHT22;18500;43.618;1.474;2023-09-19T08:07:44;18.60;1.00
31975;DHT22;18500;43.618;1.474;2023-09-19T08:10:11;18.60;1.00
31975;DHT22;18500;43.618;1.474;2023-09-19T08:12:41;18.70;1.00
31975;DHT22;18500;43.618;1.474;2023-09-19T08:15:18;18.80;1.00
31975;DHT22;18500;43.618;1.474;2023-09-19T08:17:47;18.80;1.00
31975;DHT22;18500;43.618;1.474;2023-09-19T08:20:12;19.00;1.00
31975;DHT22;18500;43.618;1.474;2023-09-19T08:22:51;19.00;1.00
31975;DHT22;18500;43.618;1.474;2023-09-19T08:25:23;18.90;1.00
31975;DHT22;18500;43.618;1.474;2023-09-19T08:27:49;19.00;1.00
31975;DHT22;18500;43.618;1.474;2023-09-19T08:30:19;19.00;1.00
31975;DHT22;18500;43.618;1.474;2023-09-19T08:32:49;19.10;1.00
31975;DHT22;18500;43.618;1.474;2023-09-19T08:35:15;19.30;1.00
31975;DHT22;18500;43.618;1.474;2023-09-19T08:37:40;19.40;1.00
31975;DHT22;18500;43.618;1.474;2023-09-19T08:40:07;19.60;1.00
31975;DHT22;18500;43.618;1.474;2023-09-19T08:45:33;20.30;1.00
31975;DHT22;18500;43.618;1.474;2023-09-19T08:50:28;20.60;1.00
31975;DHT22;18500;43.618;1.474;2023-09-19T08:53:00;20.70;1.00
31975;DHT22;18500;43.618;1.474;2023-09-19T08:55:29;20.50;1.00
31975;DHT22;18500;43.618;1.474;2023-09-19T08:58:04;20.40;1.00
31975;DHT22;18500;43.618;1.474;2023-09-19T09:00:32;20.50;1.00
31975;DHT22;18500;43.618;1.474;2023-09-19T09:02:58;20.30;1.00
31975;DHT22;18500;43.618;1.474;2023-09-19T09:05:24;20.20;1.00
31975;DHT22;18500;43.618;1.474;2023-09-19T09:07:49;20.40;1.00
31975;DHT22;18500;43.618;1.474;2023-09-19T09:10:20;20.50;1.00
31975;DHT22;18500;43.618;1.474;2023-09-19T09:12:53;20.70;1.00
31975;DHT22;18500;43.618;1.474;2023-09-19T09:15:23;20.70;1.00
31975;DHT22;18500;43.618;1.474;2023-09-19T09:17:49;20.80;1.00
31975;DHT22;18500;43.618;1.474;2023-09-19T09:20:16;20.70;1.00
31975;DHT22;18500;43.618;1.474;2023-09-19T09:22:51;20.80;1.00
31975;DHT22;18500;43.618;1.474;2023-09-19T09:25:18;20.70;1.00
31975;DHT22;18500;43.618;1.474;2023-09-19T09:27:46;20.70;1.00
31975;DHT22;18500;43.618;1.474;2023-09-19T09:30:32;20.80;1.00
31975;DHT22;18500;43.618;1.474;2023-09-19T09:33:10;20.90;1.00
31975;DHT22;18500;43.618;1.474;2023-09-19T09:35:55;21.00;1.00
31975;DHT22;18500;43.618;1.474;2023-09-19T09:38:25;20.70;1.00
31975;DHT22;18500;43.618;1.474;2023-09-19T09:40:57;20.40;1.00
31975;DHT22;18500;43.618;1.474;2023-09-19T09:43:35;20.60;1.00
31975;DHT22;18500;43.618;1.474;2023-09-19T09:51:48;21.70;1.00
31975;DHT22;18500;43.618;1.474;2023-09-19T09:54:23;21.90;1.00
31975;DHT22;18500;43.618;1.474;2023-09-19T09:59:18;21.80;1.00
31975;DHT22;18500;43.618;1.474;2023-09-19T10:01:47;21.60;1.00
31975;DHT22;18500;43.618;1.474;2023-09-19T10:04:26;21.60;1.00
31975;DHT22;18500;43.618;1.474;2023-09-19T10:06:54;21.80;1.00
31975;DHT22;18500;43.618;1.474;2023-09-19T10:09:19;21.70;1.00
31975;DHT22;18500;43.618;1.474;2023-09-19T10:11:47;21.40;1.00
31975;DHT22;18500;43.618;1.474;2023-09-19T10:14:19;21.40;1.00
31975;DHT22;18500;43.618;1.474;2023-09-19T10:16:49;21.50;1.00
31975;DHT22;18500;43.618;1.474;2023-09-19T10:19:24;21.70;1.00
31975;DHT22;18500;43.618;1.474;2023-09-19T10:21:55;21.70;1.00
31975;DHT22;18500;43.618;1.474;2023-09-19T10:24:22;21.50;1.00
31975;DHT22;18500;43.618;1.474;2023-09-19T10:26:50;21.30;1.00
31975;DHT22;18500;43.618;1.474;2023-09-19T10:29:16;21.30;1.00
31975;DHT22;18500;43.618;1.474;2023-09-19T10:31:43;21.10;1.00
31975;DHT22;18500;43.618;1.474;2023-09-19T10:34:15;21.10;1.00
31975;DHT22;18500;43.618;1.474;2023-09-19T10:36:45;21.00;1.00
31975;DHT22;18500;43.618;1.474;2023-09-19T10:39:15;21.00;1.00
31975;DHT22;18500;43.618;1.474;2023-09-19T10:41:49;21.40;1.00
31975;DHT22;18500;43.618;1.474;2023-09-19T10:44:23;21.50;1.00
31975;DHT22;18500;43.618;1.474;2023-09-19T10:46:49;21.50;1.00
31975;DHT22;18500;43.618;1.474;2023-09-19T10:49:14;21.80;1.00
31975;DHT22;18500;43.618;1.474;2023-09-19T10:51:41;21.60;1.00
31975;DHT22;18500;43.618;1.474;2023-09-19T10:54:11;21.60;1.00
31975;DHT22;18500;43.618;1.474;2023-09-19T10:56:40;21.50;1.00
31975;DHT22;18500;43.618;1.474;2023-09-19T10:59:15;21.70;1.00
31975;DHT22;18500;43.618;1.474;2023-09-19T11:01:45;22.20;1.00
31975;DHT22;18500;43.618;1.474;2023-09-19T11:07:05;22.90;1.00
31975;DHT22;18500;43.618;1.474;2023-09-19T11:09:50;23.40;1.00
31975;DHT22;18500;43.618;1.474;2023-09-19T11:15:06;23.70;1.00
31975;DHT22;18500;43.618;1.474;2023-09-19T11:17:37;24.40;1.00
31975;DHT22;18500;43.618;1.474;2023-09-19T11:30:34;23.60;1.00
31975;DHT22;18500;43.618;1.474;2023-09-19T11:33:15;23.30;1.00
31975;DHT22;18500;43.618;1.474;2023-09-19T11:46:51;23.70;1.00
31975;DHT22;18500;43.618;1.474;2023-09-19T11:49:26;23.60;1.00
31975;DHT22;18500;43.618;1.474;2023-09-19T11:51:55;23.50;1.00
31975;DHT22;18500;43.618;1.474;2023-09-19T11:54:21;23.50;1.00
31975;DHT22;18500;43.618;1.474;2023-09-19T11:56:51;23.70;1.00
31975;DHT22;18500;43.618;1.474;2023-09-19T11:59:23;24.00;1.00
31975;DHT22;18500;43.618;1.474;2023-09-19T12:01:52;24.60;1.00
31975;DHT22;18500;43.618;1.474;2023-09-19T12:04:37;24.50;1.00
31975;DHT22;18500;43.618;1.474;2023-09-19T12:07:13;24.70;1.00
31975;DHT22;18500;43.618;1.474;2023-09-19T12:09:42;24.40;1.00
31975;DHT22;18500;43.618;1.474;2023-09-19T12:12:23;24.70;1.00
31975;DHT22;18500;43.618;1.474;2023-09-19T12:14:49;24.70;1.00
31975;DHT22;18500;43.618;1.474;2023-09-19T12:17:16;24.40;1.00
31975;DHT22;18500;43.618;1.474;2023-09-19T12:19:53;27.10;1.00
31975;DHT22;18500;43.618;1.474;2023-09-19T12:22:18;29.40;1.00
31975;DHT22;18500;43.618;1.474;2023-09-19T12:24:45;31.80;99.90
31975;DHT22;18500;43.618;1.474;2023-09-19T12:27:12;32.50;99.90
31975;DHT22;18500;43.618;1.474;2023-09-19T12:29:42;32.20;99.90
31975;DHT22;18500;43.618;1.474;2023-09-19T12:32:08;35.10;99.90
31975;DHT22;18500;43.618;1.474;2023-09-19T12:34:34;36.10;99.90
31975;DHT22;18500;43.618;1.474;2023-09-19T12:37:10;37.10;99.90
31975;DHT22;18500;43.618;1.474;2023-09-19T12:39:46;34.50;99.90
31975;DHT22;18500;43.618;1.474;2023-09-19T12:42:14;35.20;99.90
31975;DHT22;18500;43.618;1.474;2023-09-19T12:44:43;35.20;99.90
31975;DHT22;18500;43.618;1.474;2023-09-19T12:47:10;36.20;99.90
31975;DHT22;18500;43.618;1.474;2023-09-19T12:49:36;35.90;99.90
31975;DHT22;18500;43.618;1.474;2023-09-19T12:52:01;35.20;99.90
31975;DHT22;18500;43.618;1.474;2023-09-19T12:54:39;34.30;99.90
31975;DHT22;18500;43.618;1.474;2023-09-19T12:57:05;36.60;99.90
31975;DHT22;18500;43.618;1.474;2023-09-19T12:59:31;36.40;99.90
31975;DHT22;18500;43.618;1.474;2023-09-19T13:02:04;37.50;99.90
31975;DHT22;18500;43.618;1.474;2023-09-19T13:04:32;35.90;99.90
31975;DHT22;18500;43.618;1.474;2023-09-19T13:06:59;37.00;99.90
31975;DHT22;18500;43.618;1.474;2023-09-19T13:09:26;39.50;99.90
31975;DHT22;18500;43.618;1.474;2023-09-19T13:12:00;38.60;99.90
31975;DHT22;18500;43.618;1.474;2023-09-19T13:14:28;37.70;99.90
31975;DHT22;18500;43.618;1.474;2023-09-19T13:19:48;36.70;99.90
31975;DHT22;18500;43.618;1.474;2023-09-19T13:24:59;38.90;99.90
31975;DHT22;18500;43.618;1.474;2023-09-19T13:27:24;39.80;99.90
31975;DHT22;18500;43.618;1.474;2023-09-19T13:29:51;38.50;99.90
31975;DHT22;18500;43.618;1.474;2023-09-19T13:32:16;37.90;99.90
31975;DHT22;18500;43.618;1.474;2023-09-19T13:34:42;39.10;99.90
31975;DHT22;18500;43.618;1.474;2023-09-19T13:37:07;40.90;99.90
31975;DHT22;18500;43.618;1.474;2023-09-19T13:39:33;39.60;99.90
31975;DHT22;18500;43.618;1.474;2023-09-19T13:41:58;40.00;99.90
31975;DHT22;18500;43.618;1.474;2023-09-19T13:44:24;39.60;99.90
31975;DHT22;18500;43.618;1.474;2023-09-19T13:46:49;34.60;99.90
31975;DHT22;18500;43.618;1.474;2023-09-19T13:49:16;35.20;99.90
31975;DHT22;18500;43.618;1.474;2023-09-19T13:51:43;37.20;99.90
31975;DHT22;18500;43.618;1.474;2023-09-19T13:54:09;35.60;99.90
31975;DHT22;18500;43.618;1.474;2023-09-19T13:56:35;33.00;99.90
31975;DHT22;18500;43.618;1.474;2023-09-19T13:59:02;30.30;99.90
31975;DHT22;18500;43.618;1.474;2023-09-19T14:01:27;29.30;99.90
31975;DHT22;18500;43.618;1.474;2023-09-19T14:03:53;29.30;99.90
31975;DHT22;18500;43.618;1.474;2023-09-19T14:06:20;29.30;99.90
31975;DHT22;18500;43.618;1.474;2023-09-19T14:08:45;28.60;99.90
31975;DHT22;18500;43.618;1.474;2023-09-19T14:11:13;27.80;99.90
31975;DHT22;18500;43.618;1.474;2023-09-19T14:13:39;27.30;99.90
31975;DHT22;18500;43.618;1.474;2023-09-19T14:16:08;27.10;99.90
31975;DHT22;18500;43.618;1.474;2023-09-19T14:18:34;26.90;99.90
31975;DHT22;18500;43.618;1.474;2023-09-19T14:21:05;26.70;99.90
31975;DHT22;18500;43.618;1.474;2023-09-19T14:23:37;26.90;99.90
31975;DHT22;18500;43.618;1.474;2023-09-19T14:26:03;26.60;99.90
31975;DHT22;18500;43.618;1.474;2023-09-19T14:28:30;26.50;99.90
31975;DHT22;18500;43.618;1.474;2023-09-19T14:30:56;26.00;99.90
31975;DHT22;18500;43.618;1.474;2023-09-19T14:33:21;25.90;99.90
31975;DHT22;18500;43.618;1.474;2023-09-19T14:35:47;26.00;99.90
31975;DHT22;18500;43.618;1.474;2023-09-19T14:38:12;26.00;99.90
31975;DHT22;18500;43.618;1.474;2023-09-19T14:40:38;25.90;99.90
31975;DHT22;18500;43.618;1.474;2023-09-19T14:43:04;25.90;99.90
31975;DHT22;18500;43.618;1.474;2023-09-19T14:45:30;26.00;99.90
31975;DHT22;18500;43.618;1.474;2023-09-19T14:47:56;25.80;99.90
31975;DHT22;18500;43.618;1.474;2023-09-19T14:50:22;25.80;99.90
31975;DHT22;18500;43.618;1.474;2023-09-19T14:52:48;25.80;99.90
31975;DHT22;18500;43.618;1.474;2023-09-19T14:55:15;25.70;99.90
31975;DHT22;18500;43.618;1.474;2023-09-19T14:57:42;25.60;99.90
31975;DHT22;18500;43.618;1.474;2023-09-19T15:00:10;25.50;99.90
31975;DHT22;18500;43.618;1.474;2023-09-19T15:02:38;25.50;99.90
31975;DHT22;18500;43.618;1.474;2023-09-19T15:05:04;25.50;99.90
31975;DHT22;18500;43.618;1.474;2023-09-19T15:07:29;25.50;99.90
31975;DHT22;18500;43.618;1.474;2023-09-19T15:09:55;25.50;99.90
31975;DHT22;18500;43.618;1.474;2023-09-19T15:12:20;25.40;99.90
31975;DHT22;18500;43.618;1.474;2023-09-19T15:14:46;25.30;99.90
31975;DHT22;18500;43.618;1.474;2023-09-19T15:17:11;25.20;99.90
31975;DHT22;18500;43.618;1.474;2023-09-19T15:19:37;25.20;99.90
31975;DHT22;18500;43.618;1.474;2023-09-19T15:22:03;25.30;99.90
31975;DHT22;18500;43.618;1.474;2023-09-19T15:24:29;25.30;99.90
31975;DHT22;18500;43.618;1.474;2023-09-19T15:26:54;25.30;99.90
31975;DHT22;18500;43.618;1.474;2023-09-19T15:29:20;25.20;99.90
31975;DHT22;18500;43.618;1.474;2023-09-19T15:31:46;25.10;99.90
31975;DHT22;18500;43.618;1.474;2023-09-19T15:34:11;25.10;99.90
31975;DHT22;18500;43.618;1.474;2023-09-19T15:36:41;25.10;99.90
31975;DHT22;18500;43.618;1.474;2023-09-19T15:39:07;25.10;99.90
31975;DHT22;18500;43.618;1.474;2023-09-19T15:41:39;24.90;99.90
31975;DHT22;18500;43.618;1.474;2023-09-19T15:44:11;25.00;99.90
31975;DHT22;18500;43.618;1.474;2023-09-19T15:46:39;25.10;99.90
31975;DHT22;18500;43.618;1.474;2023-09-19T15:49:04;24.90;99.90
31975;DHT22;18500;43.618;1.474;2023-09-19T15:51:30;25.00;99.90
31975;DHT22;18500;43.618;1.474;2023-09-19T15:53:56;25.10;99.90
31975;DHT22;18500;43.618;1.474;2023-09-19T15:56:22;25.00;99.90
31975;DHT22;18500;43.618;1.474;2023-09-19T15:58:48;24.90;99.90
31975;DHT22;18500;43.618;1.474;2023-09-19T16:01:14;24.90;99.90
31975;DHT22;18500;43.618;1.474;2023-09-19T16:03:42;24.80;99.90
31975;DHT22;18500;43.618;1.474;2023-09-19T16:06:09;24.70;99.90
31975;DHT22;18500;43.618;1.474;2023-09-19T16:08:35;24.70;99.90
31975;DHT22;18500;43.618;1.474;2023-09-19T16:11:01;24.60;99.90
31975;DHT22;18500;43.618;1.474;2023-09-19T16:13:28;24.50;99.90
31975;DHT22;18500;43.618;1.474;2023-09-19T16:15:53;24.50;99.90
31975;DHT22;18500;43.618;1.474;2023-09-19T16:18:19;24.50;99.90
31975;DHT22;18500;43.618;1.474;2023-09-19T16:20:44;24.50;99.90
31975;DHT22;18500;43.618;1.474;2023-09-19T16:23:10;24.40;99.90
31975;DHT22;18500;43.618;1.474;2023-09-19T16:25:36;24.20;99.90
31975;DHT22;18500;43.618;1.474;2023-09-19T16:28:02;24.20;99.90
31975;DHT22;18500;43.618;1.474;2023-09-19T16:30:28;24.30;99.90
31975;DHT22;18500;43.618;1.474;2023-09-19T16:32:54;24.60;99.90
31975;DHT22;18500;43.618;1.474;2023-09-19T16:35:20;24.50;99.90
31975;DHT22;18500;43.618;1.474;2023-09-19T16:37:45;24.40;99.90
31975;DHT22;18500;43.618;1.474;2023-09-19T16:40:12;24.30;99.90
31975;DHT22;18500;43.618;1.474;2023-09-19T16:42:37;24.10;99.90